createdAt,value
2023-01-24T00:01:19.941Z,100840.88
2023-01-24T00:03:48.179Z,100837.38
2023-01-24T00:06:16.876Z,100839.00
2023-01-24T00:08:45.238Z,100836.31
2023-01-24T00:11:14.690Z,100847.91
2023-01-24T00:13:43.314Z,100851.91
2023-01-24T00:16:15.912Z,100849.50
2023-01-24T00:18:44.651Z,100849.22
2023-01-24T00:21:14.385Z,100848.16
2023-01-24T00:23:43.841Z,100854.31
2023-01-24T00:26:12.568Z,100840.41
2023-01-24T00:28:41.316Z,100845.47
2023-01-24T00:31:09.826Z,100849.47
2023-01-24T00:33:39.356Z,100849.47
2023-01-24T00:36:08.574Z,100854.59
2023-01-24T00:38:36.709Z,100852.72
2023-01-24T00:41:04.886Z,100853.50
2023-01-24T00:43:33.124Z,100855.94
2023-01-24T00:46:01.418Z,100859.97
2023-01-24T00:48:29.497Z,100856.50
2023-01-24T00:50:59.056Z,100856.19
2023-01-24T00:53:27.569Z,100861.81
2023-01-24T00:55:56.754Z,100857.22
2023-01-24T00:58:25.335Z,100855.66
2023-01-24T01:00:57.615Z,100861.84
2023-01-24T01:03:25.777Z,100865.34
2023-01-24T01:06:01.355Z,100861.56
2023-01-24T01:08:29.463Z,100851.91
2023-01-24T01:10:57.601Z,100856.75
2023-01-24T01:13:26.342Z,100859.41
2023-01-24T01:16:02.770Z,100860.50
2023-01-24T01:18:31.106Z,100858.56
2023-01-24T01:21:00.587Z,100864.22
2023-01-24T01:23:28.812Z,100859.97
2023-01-24T01:26:01.444Z,100864.25
2023-01-24T01:28:29.584Z,100864.47
2023-01-24T01:30:58.567Z,100861.47
2023-01-24T01:33:27.329Z,100867.69
2023-01-24T01:35:55.537Z,100849.41
2023-01-24T01:38:29.041Z,100857.75
2023-01-24T01:40:57.726Z,100855.88
2023-01-24T01:43:27.349Z,100847.84
2023-01-24T01:45:56.518Z,100856.41
2023-01-24T01:48:30.689Z,100855.63
2023-01-24T01:51:08.577Z,100852.38
2023-01-24T01:53:43.534Z,100849.16
2023-01-24T01:56:18.185Z,100853.50
2023-01-24T01:58:46.384Z,100852.69
2023-01-24T02:01:14.800Z,100850.78
2023-01-24T02:03:48.645Z,100851.84
2023-01-24T02:06:32.113Z,100857.75
2023-01-24T02:09:04.795Z,100863.19
2023-01-24T02:11:42.011Z,100864.78
2023-01-24T02:14:30.423Z,100859.97
2023-01-24T02:16:58.963Z,100866.44
2023-01-24T02:19:44.500Z,100869.66
2023-01-24T02:22:19.278Z,100873.13
2023-01-24T02:24:59.726Z,100877.97
2023-01-24T02:27:29.403Z,100885.19
2023-01-24T02:29:59.128Z,100880.38
2023-01-24T02:32:27.926Z,100884.41
2023-01-24T02:34:56.115Z,100885.75
2023-01-24T02:37:24.193Z,100881.47
2023-01-24T02:39:57.031Z,100882.28
2023-01-24T02:42:31.655Z,100883.88
2023-01-24T02:45:06.295Z,100885.72
2023-01-24T02:47:42.878Z,100888.41
2023-01-24T02:50:11.962Z,100894.06
2023-01-24T02:52:57.738Z,100885.22
2023-01-24T02:55:27.443Z,100882.78
2023-01-24T02:58:08.456Z,100880.38
2023-01-24T03:00:37.917Z,100879.84
2023-01-24T03:03:06.613Z,100882.00
2023-01-24T03:05:57.813Z,100877.44
2023-01-24T03:08:27.141Z,100882.78
2023-01-24T03:11:14.154Z,100880.91
2023-01-24T03:14:01.035Z,100878.22
2023-01-24T03:16:46.593Z,100875.56
2023-01-24T03:19:32.264Z,100884.13
2023-01-24T03:22:17.796Z,100880.09
2023-01-24T03:25:03.418Z,100883.31
2023-01-24T03:27:49.147Z,100886.81
2023-01-24T03:30:36.235Z,100880.34
2023-01-24T03:33:22.653Z,100875.53
2023-01-24T03:35:55.518Z,100873.38
2023-01-24T03:38:41.759Z,100875.25
2023-01-24T03:41:09.976Z,100880.09
2023-01-24T03:43:38.069Z,100875.25
2023-01-24T03:46:07.630Z,100872.31
2023-01-24T03:48:37.475Z,100865.63
2023-01-24T03:51:24.222Z,100874.16
2023-01-24T03:53:52.668Z,100873.91
2023-01-24T03:56:20.706Z,100865.03
2023-01-24T03:58:48.802Z,100872.28
2023-01-24T04:01:18.436Z,100885.91
2023-01-24T04:03:46.598Z,100874.16
2023-01-24T04:06:14.708Z,100864.50
2023-01-24T04:08:42.976Z,100880.31
2023-01-24T04:11:11.062Z,100877.09
2023-01-24T04:13:39.137Z,100873.06
2023-01-24T04:16:09.765Z,100861.28
2023-01-24T04:18:39.488Z,100867.72
2023-01-24T04:21:08.118Z,100864.25
2023-01-24T04:23:36.202Z,100869.56
2023-01-24T04:26:04.396Z,100871.47
2023-01-24T04:28:33.510Z,100871.75
2023-01-24T04:31:03.339Z,100868.53
2023-01-24T04:33:31.465Z,100874.69
2023-01-24T04:36:01.198Z,100878.97
2023-01-24T04:38:29.247Z,100878.44
2023-01-24T04:41:01.644Z,100875.16
2023-01-24T04:43:29.883Z,100874.34
2023-01-24T04:45:58.738Z,100880.53
2023-01-24T04:48:26.979Z,100885.88
2023-01-24T04:51:01.528Z,100880.78
2023-01-24T04:53:30.791Z,100882.97
2023-01-24T04:56:02.336Z,100884.81
2023-01-24T04:58:30.643Z,100872.75
2023-01-24T05:00:59.642Z,100875.72
2023-01-24T05:03:28.817Z,100882.97
2023-01-24T05:05:57.523Z,100888.25
2023-01-24T05:08:27.555Z,100881.28
2023-01-24T05:10:55.941Z,100877.53
2023-01-24T05:13:24.195Z,100890.66
2023-01-24T05:15:53.765Z,100888.53
2023-01-24T05:18:21.912Z,100892.56
2023-01-24T05:20:50.004Z,100898.13
2023-01-24T05:23:18.648Z,100894.16
2023-01-24T05:25:48.299Z,100894.19
2023-01-24T05:28:16.352Z,100900.06
2023-01-24T05:30:44.379Z,100897.34
2023-01-24T05:33:12.605Z,100898.13
2023-01-24T05:35:41.884Z,100902.44
2023-01-24T05:38:10.017Z,100898.97
2023-01-24T05:40:38.156Z,100900.81
2023-01-24T05:43:07.961Z,100898.69
2023-01-24T05:45:36.071Z,100898.41
2023-01-24T05:48:04.188Z,100906.44
2023-01-24T05:50:32.372Z,100906.44
2023-01-24T05:53:03.671Z,100911.44
2023-01-24T05:55:32.076Z,100918.97
2023-01-24T05:58:00.796Z,100911.19
2023-01-24T06:00:30.611Z,100910.72
2023-01-24T06:03:04.157Z,100921.59
2023-01-24T06:05:32.349Z,100934.47
2023-01-24T06:08:00.459Z,100931.34
2023-01-24T06:10:28.591Z,100943.47
2023-01-24T06:12:56.804Z,100941.88
2023-01-24T06:15:24.906Z,100952.56
2023-01-24T06:17:58.661Z,100945.88
2023-01-24T06:20:27.340Z,100947.78
2023-01-24T06:22:59.202Z,100950.97
2023-01-24T06:25:28.350Z,100949.91
2023-01-24T06:27:57.150Z,100946.09
2023-01-24T06:30:26.060Z,100940.75
2023-01-24T06:33:19.361Z,100943.19
2023-01-24T06:36:09.520Z,100951.00
2023-01-24T06:38:38.444Z,100957.75
2023-01-24T06:41:16.254Z,100952.34
2023-01-24T06:43:45.749Z,100975.13
2023-01-24T06:46:15.176Z,100956.06
2023-01-24T06:48:46.699Z,100960.25
2023-01-24T06:51:16.025Z,100959.94
2023-01-24T06:53:44.177Z,100974.69
2023-01-24T06:56:12.838Z,100980.44
2023-01-24T06:58:41.048Z,100966.78
2023-01-24T07:01:09.182Z,100980.69
2023-01-24T07:03:37.360Z,100978.72
2023-01-24T07:06:07.496Z,100976.09
2023-01-24T07:08:35.603Z,100975.00
2023-01-24T07:11:03.692Z,100980.09
2023-01-24T07:13:31.810Z,100978.25
2023-01-24T07:16:02.805Z,100984.97
2023-01-24T07:18:31.541Z,100987.09
2023-01-24T07:21:00.140Z,100998.88
2023-01-24T07:23:31.282Z,101000.53
2023-01-24T07:25:59.848Z,101003.25
2023-01-24T07:28:28.224Z,101002.50
2023-01-24T07:30:56.454Z,101000.34
2023-01-24T07:33:24.556Z,101005.19
2023-01-24T07:35:52.750Z,101003.53
2023-01-24T07:38:20.887Z,100999.50
2023-01-24T07:40:50.655Z,101001.34
2023-01-24T07:43:19.822Z,101005.09
2023-01-24T07:45:49.549Z,101003.34
2023-01-24T07:48:19.213Z,101014.63
2023-01-24T07:50:47.326Z,101021.31
2023-01-24T07:53:15.399Z,101008.72
2023-01-24T07:55:53.002Z,101011.63
2023-01-24T07:58:30.903Z,101022.22
2023-01-24T08:00:59.508Z,101032.19
2023-01-24T08:03:27.899Z,101034.09
2023-01-24T08:05:56.203Z,101027.69
2023-01-24T08:08:24.460Z,101021.47
2023-01-24T08:10:52.659Z,101030.88
2023-01-24T08:13:20.793Z,101035.44
2023-01-24T08:15:50.477Z,101040.84
2023-01-24T08:18:19.092Z,101036.31
2023-01-24T08:20:47.574Z,101030.72
2023-01-24T08:23:15.660Z,101033.16
2023-01-24T08:25:46.687Z,101037.97
2023-01-24T08:28:14.823Z,101032.63
2023-01-24T08:30:43.141Z,101027.22
2023-01-24T08:33:19.867Z,101035.50
2023-01-24T08:35:48.583Z,101030.44
2023-01-24T08:38:18.140Z,101034.78
2023-01-24T08:40:49.940Z,101030.50
2023-01-24T08:43:19.371Z,101029.94
2023-01-24T08:45:47.657Z,101033.19
2023-01-24T08:48:17.365Z,101038.81
2023-01-24T08:50:45.698Z,101045.28
2023-01-24T08:53:13.975Z,101046.88
2023-01-24T08:55:42.387Z,101050.63
2023-01-24T08:58:10.459Z,101050.91
2023-01-24T09:00:38.611Z,101047.41
2023-01-24T09:03:06.744Z,101048.75
2023-01-24T09:05:37.862Z,101047.41
2023-01-24T09:08:07.003Z,101043.66
2023-01-24T09:10:35.171Z,101044.44
2023-01-24T09:13:04.404Z,101033.69
2023-01-24T09:15:33.244Z,101038.50
2023-01-24T09:18:03.251Z,101041.72
2023-01-24T09:20:31.453Z,101036.34
2023-01-24T09:23:00.994Z,101039.00
2023-01-24T09:25:31.719Z,101036.91
2023-01-24T09:27:59.819Z,101034.25
2023-01-24T09:30:28.201Z,101032.13
2023-01-24T09:32:57.594Z,101028.34
2023-01-24T09:35:25.772Z,101023.00
2023-01-24T09:37:54.523Z,101017.38
2023-01-24T09:40:27.715Z,101019.81
2023-01-24T09:43:06.361Z,101023.00
2023-01-24T09:45:39.451Z,101021.41
2023-01-24T09:48:13.094Z,101016.00
2023-01-24T09:50:45.734Z,101023.00
2023-01-24T09:53:21.145Z,101014.94
2023-01-24T09:55:51.444Z,101015.75
2023-01-24T09:58:34.180Z,101016.00
2023-01-24T10:01:06.378Z,101020.28
2023-01-24T10:03:35.994Z,101015.47
2023-01-24T10:06:13.539Z,101024.06
2023-01-24T10:08:51.783Z,101014.16
2023-01-24T10:11:35.397Z,101015.47
2023-01-24T10:14:34.324Z,101014.94
2023-01-24T10:17:40.809Z,101005.53
2023-01-24T10:20:19.338Z,100999.91
2023-01-24T10:23:05.513Z,100994.69
2023-01-24T10:25:42.677Z,100994.97
2023-01-24T10:28:21.040Z,100996.56
2023-01-24T10:30:55.880Z,100988.84
2023-01-24T10:33:30.269Z,100991.84
2023-01-24T10:36:01.179Z,100988.03
2023-01-24T10:38:30.747Z,100976.22
2023-01-24T10:41:12.312Z,100979.75
2023-01-24T10:43:44.373Z,100974.09
2023-01-24T10:46:28.361Z,100976.75
2023-01-24T10:48:59.818Z,100970.50
2023-01-24T10:51:27.855Z,100969.44
2023-01-24T10:54:03.510Z,100958.91
2023-01-24T10:56:32.385Z,100962.59
2023-01-24T10:59:06.922Z,100970.69
2023-01-24T11:01:38.425Z,100962.06
2023-01-24T11:04:17.581Z,100961.50
2023-01-24T11:06:48.380Z,100954.78
2023-01-24T11:09:21.192Z,100962.56
2023-01-24T11:11:52.596Z,100956.06
2023-01-24T11:14:23.746Z,100956.50
2023-01-24T11:16:54.809Z,100953.28
2023-01-24T11:19:28.688Z,100953.25
2023-01-24T11:21:58.964Z,100953.03
2023-01-24T11:24:27.999Z,100947.09
2023-01-24T11:27:00.078Z,100943.03
2023-01-24T11:29:29.571Z,100945.94
2023-01-24T11:32:03.850Z,100947.03
2023-01-24T11:34:45.753Z,100940.81
2023-01-24T11:37:36.125Z,100944.91
2023-01-24T11:40:21.744Z,100933.28
2023-01-24T11:43:03.718Z,100939.59
2023-01-24T11:45:51.800Z,100927.38
2023-01-24T11:48:22.041Z,100927.38
2023-01-24T11:51:13.294Z,100922.75
2023-01-24T11:54:04.986Z,100925.34
2023-01-24T11:56:45.302Z,100918.69
2023-01-24T11:59:39.599Z,100913.31
2023-01-24T12:02:43.006Z,100919.91
2023-01-24T12:05:40.146Z,100922.44
2023-01-24T12:08:26.312Z,100928.72
2023-01-24T12:11:22.728Z,100928.72
2023-01-24T12:14:09.297Z,100921.84
2023-01-24T12:16:49.822Z,100923.53
2023-01-24T12:19:43.572Z,100920.63
2023-01-24T12:22:17.275Z,100921.34
2023-01-24T12:24:53.471Z,100923.19
2023-01-24T12:27:25.643Z,100915.19
2023-01-24T12:30:00.777Z,100919.34
2023-01-24T12:32:37.125Z,100920.84
2023-01-24T12:35:22.777Z,100928.56
2023-01-24T12:38:07.739Z,100925.91
2023-01-24T12:40:48.738Z,100930.91
2023-01-24T12:43:25.394Z,100929.28
2023-01-24T12:46:03.855Z,100931.75
2023-01-24T12:48:41.050Z,100924.78
2023-01-24T12:51:19.173Z,100927.69
2023-01-24T12:54:01.890Z,100926.28
2023-01-24T12:56:47.313Z,100931.66
2023-01-24T12:59:19.017Z,100928.44
2023-01-24T13:02:24.075Z,100926.59
2023-01-24T13:05:00.153Z,100925.16
2023-01-24T13:07:38.200Z,100932.09
2023-01-24T13:10:16.089Z,100931.34
2023-01-24T13:12:47.293Z,100933.63
2023-01-24T13:15:23.051Z,100929.09
2023-01-24T13:18:17.218Z,100933.03
2023-01-24T13:21:07.540Z,100927.84
2023-01-24T13:23:48.841Z,100931.09
2023-01-24T13:27:00.059Z,100931.47
2023-01-24T13:29:46.490Z,100935.69
2023-01-24T13:32:17.852Z,100935.59
2023-01-24T13:34:49.809Z,100936.53
2023-01-24T13:37:25.968Z,100942.47
2023-01-24T13:40:05.429Z,100939.59
2023-01-24T13:42:39.644Z,100943.78
2023-01-24T13:45:45.210Z,100935.56
2023-01-24T13:49:01.804Z,100937.09
2023-01-24T13:51:35.216Z,100941.69
2023-01-24T13:54:05.935Z,100944.16
2023-01-24T13:57:28.835Z,100935.06
2023-01-24T14:00:10.081Z,100943.09
2023-01-24T14:02:44.119Z,100943.78
2023-01-24T14:05:42.442Z,100930.88
2023-01-24T14:08:33.353Z,100944.34
2023-01-24T14:11:41.244Z,100937.50
2023-01-24T14:14:29.915Z,100940.75
2023-01-24T14:17:01.714Z,100926.97
2023-01-24T14:19:39.798Z,100934.63
2023-01-24T14:22:22.064Z,100936.84
2023-01-24T14:25:06.560Z,100937.09
2023-01-24T14:27:39.777Z,100935.50
2023-01-24T14:30:32.182Z,100935.41
2023-01-24T14:33:06.928Z,100934.56
2023-01-24T14:35:49.974Z,100941.78
2023-01-24T14:38:19.590Z,100930.56
2023-01-24T14:40:52.043Z,100936.69
2023-01-24T14:43:25.399Z,100929.72
2023-01-24T14:45:53.896Z,100934.94
2023-01-24T14:48:25.680Z,100933.84
2023-01-24T14:51:05.616Z,100939.00
2023-01-24T14:53:34.087Z,100932.22
2023-01-24T14:56:04.500Z,100942.75
2023-01-24T14:58:34.150Z,100933.09
2023-01-24T15:01:03.963Z,100940.06
2023-01-24T15:03:34.432Z,100944.97
2023-01-24T15:06:05.443Z,100946.63
2023-01-24T15:08:35.197Z,100942.06
2023-01-24T15:11:06.572Z,100941.75
2023-01-24T15:13:38.879Z,100947.44
2023-01-24T15:16:08.106Z,100949.31
2023-01-24T15:18:54.965Z,100954.16
2023-01-24T15:21:30.751Z,100946.47
2023-01-24T15:23:59.387Z,100946.69
2023-01-24T15:26:38.053Z,100943.50
2023-01-24T15:29:43.051Z,100948.88
2023-01-24T15:32:44.212Z,100954.22
2023-01-24T15:35:33.786Z,100959.63
2023-01-24T15:38:22.022Z,100958.81
2023-01-24T15:41:13.000Z,100966.03
2023-01-24T15:43:48.578Z,100958.28
2023-01-24T15:46:41.965Z,100959.94
2023-01-24T15:49:35.932Z,100973.63
2023-01-24T15:52:23.012Z,100967.75
2023-01-24T15:54:58.622Z,100966.91
2023-01-24T15:57:29.693Z,100969.56
2023-01-24T16:00:02.341Z,100966.13
2023-01-24T16:02:32.101Z,100963.44
2023-01-24T16:05:00.619Z,100963.66
2023-01-24T16:07:28.767Z,100963.38
2023-01-24T16:09:56.911Z,100975.19
2023-01-24T16:12:26.519Z,100974.38
2023-01-24T16:15:12.923Z,100971.63
2023-01-24T16:17:42.544Z,100975.44
2023-01-24T16:20:20.345Z,100968.50
2023-01-24T16:22:48.570Z,100970.63
2023-01-24T16:25:18.613Z,100973.31
2023-01-24T16:27:47.157Z,100970.38
2023-01-24T16:30:20.125Z,100976.84
2023-01-24T16:32:50.340Z,100973.06
2023-01-24T16:35:19.232Z,100976.84
2023-01-24T16:37:47.802Z,100976.09
2023-01-24T16:40:18.525Z,100979.31
2023-01-24T16:42:48.724Z,100981.44
2023-01-24T16:45:19.350Z,100988.94
2023-01-24T16:47:49.637Z,100984.66
2023-01-24T16:50:18.687Z,100989.50
2023-01-24T16:52:47.122Z,100989.75
2023-01-24T16:55:15.920Z,100985.47
2023-01-24T16:57:44.195Z,100988.41
2023-01-24T17:00:14.986Z,100985.19
2023-01-24T17:02:44.214Z,100987.88
2023-01-24T17:05:14.365Z,100985.72
2023-01-24T17:07:42.706Z,100993.50
2023-01-24T17:10:13.683Z,100992.69
2023-01-24T17:12:42.247Z,101001.03
2023-01-24T17:15:11.019Z,100996.19
2023-01-24T17:17:39.901Z,100995.38
2023-01-24T17:20:09.651Z,100998.06
2023-01-24T17:22:39.648Z,101002.91
2023-01-24T17:25:09.172Z,100995.13
2023-01-24T17:27:37.321Z,101003.44
2023-01-24T17:30:06.600Z,100997.53
2023-01-24T17:32:39.036Z,101002.09
2023-01-24T17:35:08.395Z,100995.91
2023-01-24T17:37:36.869Z,100994.28
2023-01-24T17:40:08.087Z,100999.69
2023-01-24T17:42:36.595Z,100989.50
2023-01-24T17:45:05.711Z,100991.38
2023-01-24T17:47:33.900Z,100990.00
2023-01-24T17:50:02.241Z,100993.50
2023-01-24T17:52:32.016Z,101002.91
2023-01-24T17:55:00.255Z,100997.00
2023-01-24T17:57:30.156Z,100989.47
2023-01-24T17:59:58.453Z,100996.75
2023-01-24T18:02:26.731Z,100995.66
2023-01-24T18:04:55.096Z,100991.66
2023-01-24T18:07:23.356Z,100997.81
2023-01-24T18:09:51.555Z,100999.94
2023-01-24T18:12:19.742Z,101001.56
2023-01-24T18:14:50.760Z,101000.75
2023-01-24T18:17:19.216Z,100998.34
2023-01-24T18:19:47.861Z,100997.00
2023-01-24T18:22:16.075Z,100996.72
2023-01-24T18:24:44.364Z,100998.06
2023-01-24T18:27:12.736Z,100993.53
2023-01-24T18:29:41.135Z,101005.28
2023-01-24T18:32:10.857Z,100995.09
2023-01-24T18:34:39.185Z,101003.97
2023-01-24T18:37:07.516Z,101004.75
2023-01-24T18:39:35.812Z,101006.91
2023-01-24T18:42:06.985Z,101014.97
2023-01-24T18:44:36.601Z,101006.91
2023-01-24T18:47:04.943Z,101008.53
2023-01-24T18:49:34.587Z,101012.81
2023-01-24T18:52:02.724Z,101012.53
2023-01-24T18:54:31.032Z,101008.78
2023-01-24T18:57:00.794Z,101007.97
2023-01-24T18:59:29.311Z,101011.75
2023-01-24T19:01:57.859Z,101008.00
2023-01-24T19:04:26.671Z,101011.47
2023-01-24T19:06:57.218Z,101017.63
2023-01-24T19:09:25.468Z,101018.72
2023-01-24T19:11:53.711Z,101017.38
2023-01-24T19:14:21.782Z,101022.47
2023-01-24T19:16:50.245Z,101021.66
2023-01-24T19:19:20.239Z,101025.69
2023-01-24T19:21:50.828Z,101024.34
2023-01-24T19:24:22.421Z,101021.13
2023-01-24T19:26:51.501Z,101020.88
2023-01-24T19:29:19.757Z,101012.00
2023-01-24T19:31:48.039Z,101020.31
2023-01-24T19:34:16.116Z,101019.00
2023-01-24T19:36:44.365Z,101021.41
2023-01-24T19:39:13.886Z,101019.81
2023-01-24T19:41:43.700Z,101023.00
2023-01-24T19:44:20.991Z,101020.31
2023-01-24T19:46:51.251Z,101019.22
2023-01-24T19:49:20.803Z,101024.81
2023-01-24T19:51:51.857Z,101022.91
2023-01-24T19:54:20.456Z,101029.53
2023-01-24T19:56:51.691Z,101029.44
2023-01-24T19:59:21.105Z,101024.59
2023-01-24T20:01:51.368Z,101028.03
2023-01-24T20:04:24.691Z,101023.75
2023-01-24T20:06:54.909Z,101024.97
2023-01-24T20:09:23.922Z,101019.41
2023-01-24T20:11:54.591Z,101019.19
2023-01-24T20:14:23.111Z,101032.81
2023-01-24T20:16:52.192Z,101027.13
2023-01-24T20:19:29.354Z,101024.13
2023-01-24T20:21:59.801Z,101031.34
2023-01-24T20:24:28.327Z,101033.78
2023-01-24T20:26:58.106Z,101036.72
2023-01-24T20:29:26.794Z,101035.84
2023-01-24T20:31:56.162Z,101034.00
2023-01-24T20:34:25.422Z,101026.19
2023-01-24T20:36:54.058Z,101030.47
2023-01-24T20:39:22.871Z,101041.97
2023-01-24T20:41:51.879Z,101034.16
2023-01-24T20:44:26.927Z,101033.81
2023-01-24T20:46:56.637Z,101032.75
2023-01-24T20:49:25.515Z,101038.66
2023-01-24T20:51:54.056Z,101034.72
2023-01-24T20:54:22.638Z,101045.94
2023-01-24T20:56:56.559Z,101041.00
2023-01-24T20:59:26.695Z,101042.16
2023-01-24T21:01:55.052Z,101040.59
2023-01-24T21:04:24.302Z,101046.31
2023-01-24T21:06:52.647Z,101038.19
2023-01-24T21:09:22.359Z,101033.97
2023-01-24T21:11:51.240Z,101040.00
2023-01-24T21:14:22.771Z,101037.25
2023-01-24T21:16:53.297Z,101034.19
2023-01-24T21:19:23.390Z,101033.88
2023-01-24T21:21:51.629Z,101034.28
2023-01-24T21:24:32.880Z,101036.34
2023-01-24T21:27:02.288Z,101039.41
2023-01-24T21:29:30.865Z,101040.47
2023-01-24T21:32:01.253Z,101039.31
2023-01-24T21:34:29.757Z,101029.94
2023-01-24T21:36:58.146Z,101028.75
2023-01-24T21:39:27.238Z,101030.72
2023-01-24T21:42:00.639Z,101030.97
2023-01-24T21:44:32.229Z,101028.44
2023-01-24T21:47:02.375Z,101030.56
2023-01-24T21:49:31.387Z,101022.38
2023-01-24T21:52:01.634Z,101021.59
2023-01-24T21:54:32.186Z,101023.13
2023-01-24T21:57:34.899Z,101022.53
2023-01-24T22:00:06.040Z,101020.25
2023-01-24T22:02:36.215Z,101021.06
2023-01-24T22:05:04.921Z,101019.38
2023-01-24T22:07:33.784Z,101021.78
2023-01-24T22:10:02.385Z,101017.41
2023-01-24T22:12:32.260Z,101015.81
2023-01-24T22:15:00.735Z,101012.06
2023-01-24T22:17:29.292Z,101015.81
2023-01-24T22:20:00.163Z,101011.22
2023-01-24T22:22:43.613Z,101008.88
2023-01-24T22:25:19.885Z,101008.03
2023-01-24T22:27:48.762Z,101009.38
2023-01-24T22:30:19.345Z,101006.66
2023-01-24T22:32:48.322Z,101008.25
2023-01-24T22:35:19.813Z,101009.53
2023-01-24T22:37:50.734Z,101007.66
2023-01-24T22:40:20.985Z,101006.94
2023-01-24T22:42:50.403Z,101010.41
2023-01-24T22:45:18.618Z,100999.72
2023-01-24T22:47:46.760Z,101000.00
2023-01-24T22:50:14.826Z,100994.66
2023-01-24T22:52:44.374Z,100989.44
2023-01-24T22:55:12.666Z,100986.56
2023-01-24T22:57:40.768Z,100986.25
2023-01-24T23:00:11.718Z,100988.31
2023-01-24T23:02:40.062Z,100987.84
2023-01-24T23:05:09.189Z,100983.81
2023-01-24T23:07:37.657Z,100979.22
2023-01-24T23:10:08.165Z,100980.16
2023-01-24T23:12:53.899Z,100975.75
2023-01-24T23:15:39.560Z,100977.38
2023-01-24T23:18:14.007Z,100975.56
2023-01-24T23:20:59.694Z,100977.66
2023-01-24T23:23:27.836Z,100972.22
2023-01-24T23:25:57.429Z,100976.47
2023-01-24T23:28:29.594Z,100975.84
2023-01-24T23:31:06.383Z,100973.41
2023-01-24T23:33:37.879Z,100977.78
2023-01-24T23:36:06.332Z,100978.13
2023-01-24T23:38:34.797Z,100975.19
2023-01-24T23:41:07.864Z,100975.56
2023-01-24T23:43:36.679Z,100974.78
2023-01-24T23:46:09.274Z,100974.56
2023-01-24T23:48:37.405Z,100969.75
2023-01-24T23:51:06.288Z,100966.31
2023-01-24T23:53:34.373Z,100969.75
2023-01-24T23:56:03.232Z,100975.50
2023-01-24T23:58:32.885Z,100968.75
